• Join FlightAware (Why Join?)
  • Login
  • US Flag 
09:52PM EST


 

Airport Tracker/Info


-or-


 

Live Flight TrackerFlight Track Log ✈ N53NW ✈ 08-May-2013 ✈ KMIE - KPTK

Flight Track Log - Related Links

Times and Time Zones

All times are in EDT time to prevent confusion due to time zone crossing. See the N53NW flight status page for this flight to view local times or setup timezone preferences in your user account.

Time Position Orientation Groundspeed Altitude Reporting Facility
EDT Latitude Longitude Course Direction KTS MPH feet Rate Location/Type
04:50PM 40.3267 -85.3811 39° Northeast 230 265 6,700  Level Indianapolis Center
04:51PM 40.3814 -85.3239 39° Northeast 252 290 10,500 3,480 Climbing Indianapolis Center
04:51PM 40.4036 -85.2994 40° Northeast 255 293 12,100 3,300 Climbing Chicago Center
04:52PM 40.4672 -85.2514 30° Northeast 262 302 15,600 3,240 Climbing Chicago Center
04:53PM 40.5458 -85.1964 28° Northeast 267 307 18,900 1,620 Climbing Chicago Center
04:54PM 40.6250 -85.1394 29° Northeast 330 380 19,000  Climbing Chicago Center
04:55PM 40.7117 -85.0747 30° Northeast 333 383 19,000  Level Chicago Center
04:56PM 40.7903 -85.0172 29° Northeast 327 376 19,000  Level Chicago Center
04:57PM 40.8692 -84.9600 29° Northeast 325 374 19,000  Level Chicago Center
04:58PM 40.9489 -84.9022 29° Northeast 327 376 19,000  Level Chicago Center
04:59PM 41.0294 -84.8431 29° Northeast 330 380 19,000  Level Chicago Center
05:00PM 41.1100 -84.7847 29° Northeast 332 382 19,000  Level Chicago Center
05:02PM 41.2053 -84.7147 29° Northeast 329 379 19,000  Level Chicago Center
05:03PM 41.2858 -84.6556 29° Northeast 331 381 19,000  Level Chicago Center
05:04PM 41.3656 -84.5972 29° Northeast 330 380 19,000 -240 Level Chicago Center
05:05PM 41.4453 -84.5378 29° Northeast 330 380 18,600 -1,020 Descending Chicago Center
05:06PM 41.5256 -84.4778 29° Northeast 332 382 17,000 -2,040 Descending Chicago Center
05:07PM 41.6214 -84.4072 29° Northeast 330 380 14,400 -2,400 Descending Chicago Center
05:08PM 41.6978 -84.3544 27° Northeast 319 367 12,200 -2,220 Descending Cleveland Center
05:09PM 41.7706 -84.2975 30° Northeast 314 361 10,100 -2,280 Descending Cleveland Center
05:09PM 41.7919 -84.2792 33° Northeast 277 319 9,200 -2,040 Descending Cleveland Center
05:10PM 41.8261 -84.2533 29° Northeast 291 335 8,100 -2,100 Descending Cleveland Center
05:10PM 41.8581 -84.2300 29° Northeast 265 305 7,100 -1,140 Descending Cleveland Center
05:11PM 41.8881 -84.2067 30° Northeast 263 303 7,000 -120 Descending Cleveland Center
05:11PM 41.9222 -84.1833 27° Northeast 258 297 7,000  Level Cleveland Center
05:12PM 41.9500 -84.1572 35° Northeast 255 293 7,000  Level Cleveland Center
05:12PM 41.9861 -84.1394 20° North 266 306 7,000  Level Cleveland Center
05:13PM 42.0200 -84.1192 24° Northeast 255 293 7,000  Level Cleveland Center
05:13PM 42.0517 -84.1097 12° North 263 303 7,000  Level Cleveland Center
05:14PM 42.0878 -84.0892 23° Northeast 255 293 7,000 -540 Level Cleveland Center
05:14PM 42.1175 -84.0742 21° North 264 304 6,500 -1,440 Descending Cleveland Center
05:15PM 42.1792 -84.0269 30° Northeast 257 296 5,100 -1,260 Descending Cleveland Center
05:16PM 42.2453 -83.9800 28° Northeast 251 289 4,000 -600 Descending Cleveland Center
05:17PM 42.3006 -83.9467 24° Northeast 251 289 4,000  Level Cleveland Center
05:18PM 42.3686 -83.9025 26° Northeast 255 293 4,000  Level Cleveland Center
05:19PM 42.4217 -83.8658 27° Northeast 248 285 4,000  Level Cleveland Center
05:20PM 42.4919 -83.8158 28° Northeast 246 283 4,000  Level Cleveland Center
05:21PM 42.5494 -83.7739 28° Northeast 206 237 4,000  Level Cleveland Center
05:22PM 42.6003 -83.7425 24° Northeast 199 229 4,000  Level Cleveland Center
05:23PM 42.6392 -83.6964 41° Northeast 200 230 4,000 -60 Level Cleveland Center
05:24PM 42.6553 -83.6350 70° East 189 217 3,900 -600 Descending Cleveland Center
05:25PM 42.6611 -83.5733 83° East 164 189 2,900 -840 Descending Cleveland Center
05:26PM 42.6625 -83.5169 88° East 124 143 2,200 -660 Descending Cleveland Center
05:27PM 42.6636 -83.4747 88° East 108 124 1,600 -600 Descending Cleveland Center